createdAt,value
2023-04-23T00:01:39.794Z,0.00
2023-04-23T00:11:46.907Z,0.00
2023-04-23T00:21:53.572Z,0.00
2023-04-23T00:32:00.920Z,0.00
2023-04-23T00:42:07.588Z,0.00
2023-04-23T00:52:14.908Z,0.00
2023-04-23T01:02:21.802Z,0.00
2023-04-23T01:12:28.778Z,0.00
2023-04-23T01:22:34.999Z,0.00
2023-04-23T01:32:41.954Z,0.00
2023-04-23T01:42:49.070Z,0.00
2023-04-23T01:52:55.902Z,0.00
2023-04-23T02:03:03.205Z,0.00
2023-04-23T02:13:10.256Z,0.00
2023-04-23T02:23:17.791Z,0.00
2023-04-23T02:33:24.985Z,0.00
2023-04-23T02:43:32.062Z,0.00
2023-04-23T02:53:38.232Z,0.00
2023-04-23T03:03:46.078Z,0.00
2023-04-23T03:13:53.583Z,0.00
2023-04-23T03:24:00.652Z,0.00
2023-04-23T03:34:08.553Z,0.00
2023-04-23T03:44:16.300Z,0.00
2023-04-23T03:54:23.889Z,0.00
2023-04-23T04:04:30.813Z,4.00
2023-04-23T04:14:38.655Z,8.00
2023-04-23T04:24:45.657Z,24.00
2023-04-23T04:34:53.098Z,36.00
2023-04-23T04:45:00.045Z,28.00
2023-04-23T04:55:07.071Z,20.00
2023-04-23T05:05:13.744Z,56.00
2023-04-23T05:15:20.766Z,136.00
2023-04-23T05:25:28.259Z,148.00
2023-04-23T05:35:35.643Z,96.00
2023-04-23T05:45:43.012Z,104.00
2023-04-23T05:55:50.342Z,132.00
2023-04-23T06:05:57.095Z,176.00
2023-04-23T06:16:04.114Z,196.00
2023-04-23T06:26:11.614Z,200.00
2023-04-23T06:36:19.132Z,132.00
2023-04-23T06:46:26.614Z,140.00
2023-04-23T06:56:34.124Z,104.00
2023-04-23T07:06:41.208Z,108.00
2023-04-23T07:16:48.525Z,128.00
2023-04-23T07:26:55.674Z,184.00
2023-04-23T07:37:03.266Z,188.00
2023-04-23T07:47:10.667Z,152.00
2023-04-23T07:57:17.876Z,160.00
2023-04-23T08:07:24.514Z,188.00
2023-04-23T08:17:31.618Z,216.00
2023-04-23T08:27:39.073Z,296.00
2023-04-23T08:37:45.765Z,412.00
2023-04-23T08:47:52.909Z,108.00
2023-04-23T08:58:00.316Z,100.00
2023-04-23T09:08:07.024Z,76.00
2023-04-23T09:18:13.955Z,96.00
2023-04-23T09:28:21.347Z,180.00
2023-04-23T09:38:28.091Z,204.00
2023-04-23T09:48:35.432Z,168.00
2023-04-23T09:58:42.419Z,156.00
2023-04-23T10:08:49.460Z,308.00
2023-04-23T10:18:56.542Z,268.00
2023-04-23T10:29:03.212Z,380.00
2023-04-23T10:39:10.351Z,548.00
2023-04-23T10:49:17.275Z,664.00
2023-04-23T10:59:24.413Z,340.00
2023-04-23T11:09:31.448Z,564.00
2023-04-23T11:19:38.409Z,504.00
2023-04-23T11:29:45.700Z,404.00
2023-04-23T11:39:53.528Z,652.00
2023-04-23T11:50:00.883Z,628.00
2023-04-23T12:00:07.438Z,476.00
2023-04-23T12:10:16.584Z,508.00
2023-04-23T12:20:23.656Z,532.00
2023-04-23T12:30:30.950Z,500.00
2023-04-23T12:40:38.182Z,424.00
2023-04-23T12:50:44.793Z,340.00
2023-04-23T13:00:52.347Z,464.00
2023-04-23T13:10:59.972Z,408.00
2023-04-23T13:21:07.464Z,404.00
2023-04-23T13:31:14.477Z,368.00
2023-04-23T13:41:21.438Z,256.00
2023-04-23T13:51:35.389Z,280.00
2023-04-23T14:01:40.561Z,320.00
2023-04-23T14:11:47.205Z,260.00
2023-04-23T14:21:54.257Z,248.00
2023-04-23T14:32:01.470Z,208.00
2023-04-23T14:42:09.478Z,268.00
2023-04-23T14:52:16.656Z,264.00
2023-04-23T15:02:23.806Z,292.00
2023-04-23T15:12:31.488Z,212.00
2023-04-23T15:22:38.763Z,228.00
2023-04-23T15:32:45.690Z,212.00
2023-04-23T15:42:52.380Z,184.00
2023-04-23T15:52:59.370Z,128.00
2023-04-23T16:03:06.252Z,160.00
2023-04-23T16:13:13.719Z,112.00
2023-04-23T16:23:20.975Z,112.00
2023-04-23T16:33:28.132Z,108.00
2023-04-23T16:43:35.144Z,128.00
2023-04-23T16:53:42.267Z,92.00
2023-04-23T17:03:50.161Z,80.00
2023-04-23T17:13:57.814Z,96.00
2023-04-23T17:24:05.226Z,100.00
2023-04-23T17:34:12.025Z,56.00
2023-04-23T17:44:19.120Z,44.00
2023-04-23T17:54:26.114Z,32.00
2023-04-23T18:04:33.361Z,16.00
2023-04-23T18:14:40.721Z,8.00
2023-04-23T18:24:47.050Z,0.00
2023-04-23T18:34:54.327Z,0.00
2023-04-23T18:45:00.752Z,0.00
2023-04-23T18:55:07.917Z,0.00
2023-04-23T19:05:15.342Z,0.00
2023-04-23T19:15:22.704Z,0.00
2023-04-23T19:25:29.842Z,0.00
2023-04-23T19:35:39.933Z,0.00
2023-04-23T19:45:47.642Z,0.00
2023-04-23T19:55:54.890Z,0.00
2023-04-23T20:06:02.101Z,0.00
2023-04-23T20:16:08.624Z,0.00
2023-04-23T20:26:16.138Z,0.00
2023-04-23T20:36:22.737Z,0.00
2023-04-23T20:46:30.167Z,0.00
2023-04-23T20:56:38.235Z,0.00
2023-04-23T21:06:45.009Z,0.00
2023-04-23T21:16:52.247Z,0.00
2023-04-23T21:26:59.028Z,0.00
2023-04-23T21:37:06.491Z,0.00
2023-04-23T21:47:13.571Z,0.00
2023-04-23T21:57:20.307Z,0.00
2023-04-23T22:07:27.489Z,0.00
2023-04-23T22:17:34.383Z,0.00
2023-04-23T22:27:41.293Z,0.00
2023-04-23T22:37:48.832Z,0.00
2023-04-23T22:47:55.681Z,0.00
2023-04-23T22:58:03.070Z,0.00
2023-04-23T23:08:10.974Z,0.00
2023-04-23T23:18:17.692Z,0.00
2023-04-23T23:28:25.103Z,0.00
2023-04-23T23:38:31.888Z,0.00
2023-04-23T23:48:39.006Z,0.00
2023-04-23T23:58:45.708Z,0.00
